Time;durP1;ratioP1;P1;durP2;ratioP2;P2;SDS_P1;SDS_P2;PMS_P1;PMS_P2;Temp;Humidity;BMP_temperature;BMP_pressure;BME280_temperature;BME280_humidity;BME280_pressure;Samples;Min_cycle;Max_cycle;Signal;HPM_P1;HPM_P2
2021/11/04 00:02:14;;;;;;;22.42;15.05;;;;;;;3.63;100.00;100552.84;5030971;28;20417;-74
2021/11/04 00:04:40;;;;;;;26.92;15.75;;;;;;;3.61;100.00;100549.28;5028356;28;20036;-75
2021/11/04 00:07:10;;;;;;;22.77;15.98;;;;;;;3.58;100.00;100549.19;5033440;28;20108;-74
2021/11/04 00:09:36;;;;;;;24.50;17.05;;;;;;;3.59;100.00;100557.03;5029400;28;20477;-75
2021/11/04 00:12:01;;;;;;;23.55;16.27;;;;;;;3.70;100.00;100560.06;5031002;28;20025;-75
2021/11/04 00:14:26;;;;;;;20.95;15.23;;;;;;;3.57;100.00;100553.50;5032364;28;20395;-75
2021/11/04 00:16:52;;;;;;;23.02;14.82;;;;;;;3.50;100.00;100552.38;5034645;28;20059;-75
2021/11/04 00:19:17;;;;;;;17.52;13.68;;;;;;;3.47;100.00;100543.53;5035691;28;20392;-75
2021/11/04 00:21:42;;;;;;;19.35;14.40;;;;;;;3.41;100.00;100551.13;5025272;28;20080;-75
2021/11/04 00:24:08;;;;;;;21.80;14.73;;;;;;;3.41;100.00;100552.00;5027159;28;20049;-75
2021/11/04 00:26:33;;;;;;;17.75;13.63;;;;;;;3.36;100.00;100556.09;5031911;28;20028;-76
2021/11/04 00:28:59;;;;;;;18.92;14.07;;;;;;;3.35;100.00;100557.84;5031626;28;20021;-75
2021/11/04 00:31:24;;;;;;;20.80;15.15;;;;;;;3.32;100.00;100552.53;5035503;28;20017;-74
2021/11/04 00:33:52;;;;;;;18.15;13.90;;;;;;;3.35;100.00;100568.25;5025064;28;20018;-74
2021/11/04 00:36:18;;;;;;;19.88;15.32;;;;;;;3.45;100.00;100564.28;5032059;28;20031;-74
2021/11/04 00:38:46;;;;;;;15.32;12.05;;;;;;;3.33;100.00;100564.66;5033550;28;20529;-74
2021/11/04 00:41:12;;;;;;;17.73;13.32;;;;;;;3.27;100.00;100556.63;5033488;28;20109;-74
2021/11/04 00:43:37;;;;;;;17.63;14.18;;;;;;;3.33;100.00;100562.06;5029191;28;20530;-76
2021/11/04 00:46:03;;;;;;;18.90;14.20;;;;;;;3.31;100.00;100561.13;5025478;28;20064;-75
2021/11/04 00:48:28;;;;;;;18.95;14.95;;;;;;;3.32;100.00;100557.72;5029800;28;20037;-76
2021/11/04 00:50:53;;;;;;;18.67;14.40;;;;;;;3.24;100.00;100550.41;5027058;28;20100;-74
2021/11/04 00:53:19;;;;;;;22.08;15.07;;;;;;;3.23;100.00;100546.94;5031467;28;20056;-75
2021/11/04 00:55:44;;;;;;;20.35;14.38;;;;;;;3.26;100.00;100547.06;5030134;28;20024;-75
2021/11/04 00:58:09;;;;;;;26.02;14.15;;;;;;;3.25;100.00;100547.00;5026514;28;20033;-74
2021/11/04 01:00:34;;;;;;;22.50;14.32;;;;;;;3.25;100.00;100547.88;5031737;28;20029;-75
2021/11/04 01:03:00;;;;;;;22.92;16.00;;;;;;;3.29;100.00;100547.16;5031567;28;20021;-75
2021/11/04 01:05:25;;;;;;;25.55;17.27;;;;;;;3.41;100.00;100546.78;5029753;28;20041;-76
2021/11/04 01:07:50;;;;;;;19.60;14.82;;;;;;;3.29;100.00;100547.16;5035792;28;20037;-76
2021/11/04 01:10:16;;;;;;;18.25;13.38;;;;;;;3.21;100.00;100543.38;5033915;28;20033;-76
2021/11/04 01:12:41;;;;;;;24.27;12.75;;;;;;;3.11;100.00;100536.03;5034564;28;20030;-76
2021/11/04 01:15:07;;;;;;;15.75;12.52;;;;;;;3.07;100.00;100534.13;5031250;28;20021;-75
2021/11/04 01:17:33;;;;;;;16.02;13.48;;;;;;;3.01;100.00;100534.72;5028177;28;20393;-75
2021/11/04 01:19:58;;;;;;;16.73;12.40;;;;;;;2.94;100.00;100533.56;5029191;28;20115;-76
2021/11/04 01:22:24;;;;;;;14.00;11.32;;;;;;;2.81;100.00;100531.31;5033068;28;20057;-75
2021/11/04 01:24:50;;;;;;;14.10;11.82;;;;;;;2.76;100.00;100527.63;5033504;28;20046;-76
2021/11/04 01:27:15;;;;;;;13.85;11.85;;;;;;;2.73;100.00;100530.06;5029659;28;20037;-75
2021/11/04 01:29:41;;;;;;;16.70;12.95;;;;;;;2.70;100.00;100534.31;5034697;28;20070;-75
2021/11/04 01:32:06;;;;;;;19.15;13.90;;;;;;;2.68;100.00;100524.69;5031874;28;20032;-75
2021/11/04 01:34:32;;;;;;;14.23;11.65;;;;;;;2.63;100.00;100529.69;5029920;28;20025;-75
2021/11/04 01:36:58;;;;;;;16.60;13.13;;;;;;;2.59;100.00;100530.38;5028808;28;20041;-75
2021/11/04 01:39:23;;;;;;;15.50;12.73;;;;;;;2.56;100.00;100525.03;5032544;28;20025;-76
2021/11/04 01:41:49;;;;;;;15.18;12.95;;;;;;;2.55;100.00;100532.75;5035573;28;20078;-75
2021/11/04 01:44:14;;;;;;;15.00;12.13;;;;;;;2.54;100.00;100531.88;5025379;28;20085;-75
2021/11/04 01:46:39;;;;;;;15.18;13.13;;;;;;;2.49;100.00;100525.59;5027853;28;20420;-75
2021/11/04 01:49:05;;;;;;;15.65;12.27;;;;;;;2.50;100.00;100527.38;5040372;28;20432;-75
2021/11/04 01:51:30;;;;;;;18.30;13.85;;;;;;;2.50;100.00;100538.63;5030597;28;20049;-75
2021/11/04 01:53:56;;;;;;;17.60;14.45;;;;;;;2.65;100.00;100525.44;5031416;28;20026;-76
2021/11/04 01:56:24;;;;;;;15.50;13.07;;;;;;;2.61;100.00;100525.25;5025008;28;20026;-76
2021/11/04 01:58:50;;;;;;;14.55;12.52;;;;;;;2.57;100.00;100525.94;5034718;28;20040;-75
2021/11/04 02:01:16;;;;;;;13.73;11.73;;;;;;;2.48;100.00;100516.00;5020340;28;20033;-74
2021/11/04 02:04:14;;;;;;;14.45;11.85;;;;;;;2.43;100.00;100527.91;5040657;28;20049;-75
2021/11/04 02:06:45;;;;;;;17.42;12.93;;;;;;;2.46;100.00;100528.06;5025453;28;20042;-75
2021/11/04 02:09:19;;;;;;;17.55;12.90;;;;;;;2.44;100.00;100524.50;5024137;28;20029;-76
2021/11/04 02:11:51;;;;;;;15.18;12.50;;;;;;;2.42;100.00;100523.56;5016318;28;20136;-76
2021/11/04 02:14:22;;;;;;;15.63;12.02;;;;;;;2.43;100.00;100530.50;5027599;28;20385;-75
2021/11/04 02:16:47;;;;;;;17.95;13.55;;;;;;;2.41;100.00;100534.75;5032702;28;20029;-75
2021/11/04 02:19:25;;;;;;;23.73;12.55;;;;;;;2.39;100.00;100520.78;5029649;28;20474;-76
2021/11/04 02:21:57;;;;;;;17.90;13.88;;;;;;;2.41;100.00;100516.56;5025341;28;20112;-75
2021/11/04 02:24:31;;;;;;;14.32;12.18;;;;;;;2.38;100.00;100519.91;5025224;28;20402;-75
2021/11/04 02:26:57;;;;;;;;;;;;;;;2.32;100.00;100519.63;5020790;28;20048;-75
2021/11/04 02:29:24;;;;;;;17.17;11.85;;;;;;;2.28;100.00;100518.63;5024513;28;19979;-75
2021/11/04 02:31:49;;;;;;;15.02;12.40;;;;;;;2.30;100.00;100516.97;5024281;28;20083;-75
2021/11/04 02:34:15;;;;;;;15.65;11.48;;;;;;;2.22;100.00;100518.34;5034344;28;20029;-75
2021/11/04 02:36:42;;;;;;;21.67;13.25;;;;;;;2.34;100.00;100515.41;5031843;28;20030;-75
2021/11/04 02:39:08;;;;;;;16.23;13.00;;;;;;;2.31;100.00;100518.75;5031684;28;20489;-75
2021/11/04 02:41:34;;;;;;;15.65;12.73;;;;;;;2.28;100.00;100510.84;5032252;28;20468;-76
2021/11/04 02:44:01;;;;;;;15.07;12.10;;;;;;;2.23;100.00;100511.47;5033342;28;20032;-76
2021/11/04 02:46:28;;;;;;;13.82;10.70;;;;;;;2.16;100.00;100510.31;5032022;28;20384;-75
2021/11/04 02:48:54;;;;;;;15.00;12.43;;;;;;;2.15;100.00;100511.09;5029542;28;20026;-75
2021/11/04 02:51:19;;;;;;;15.18;11.93;;;;;;;2.12;100.00;100505.78;5029685;28;20048;-75
2021/11/04 02:53:48;;;;;;;16.42;12.15;;;;;;;2.12;100.00;100509.25;5037927;28;20025;-75
2021/11/04 02:56:13;;;;;;;13.93;11.75;;;;;;;2.12;100.00;100510.97;5018144;28;20483;-75
2021/11/04 02:58:39;;;;;;;15.30;12.35;;;;;;;2.13;100.00;100515.31;5023381;28;20037;-75
2021/11/04 03:01:05;;;;;;;16.77;13.02;;;;;;;2.34;100.00;100516.28;5027385;28;20083;-75
2021/11/04 03:03:31;;;;;;;13.63;11.27;;;;;;;2.21;100.00;100508.78;5024567;28;20095;-75
2021/11/04 03:05:57;;;;;;;15.50;11.48;;;;;;;2.14;100.00;100509.31;5028871;28;20045;-75
2021/11/04 03:08:24;;;;;;;19.20;12.00;;;;;;;2.11;100.00;100509.19;5032812;28;20037;-75
2021/11/04 03:10:51;;;;;;;14.32;11.10;;;;;;;2.07;100.00;100513.34;5025688;28;20528;-75
2021/11/04 03:13:16;;;;;;;17.83;12.48;;;;;;;2.16;100.00;100513.78;5019498;28;20087;-75
2021/11/04 03:15:48;;;;;;;16.80;12.45;;;;;;;2.19;100.00;100523.41;5030376;28;20025;-76
2021/11/04 03:18:14;;;;;;;17.42;10.85;;;;;;;2.13;100.00;100525.72;5025524;28;20531;-75
2021/11/04 03:20:40;;;;;;;12.27;10.10;;;;;;;2.04;100.00;100533.97;5031905;28;20045;-76
2021/11/04 03:23:06;;;;;;;15.18;12.10;;;;;;;2.09;100.00;100539.38;5032091;28;20031;-75
2021/11/04 03:25:32;;;;;;;12.88;11.25;;;;;;;2.19;100.00;100539.84;5025656;28;20021;-76
2021/11/04 03:27:59;;;;;;;13.00;10.38;;;;;;;2.12;100.00;100542.13;5027917;28;20029;-76
2021/11/04 03:30:27;;;;;;;12.48;10.32;;;;;;;2.11;100.00;100540.34;5019353;28;20383;-76
2021/11/04 03:32:55;;;;;;;14.93;10.40;;;;;;;2.13;100.00;100538.69;5019396;28;20359;-76
2021/11/04 03:35:22;;;;;;;13.75;10.95;;;;;;;2.13;100.00;100543.88;5030114;28;20390;-76
2021/11/04 03:37:50;;;;;;;15.93;11.00;;;;;;;2.10;100.00;100543.75;5039846;28;20033;-76
2021/11/04 03:40:17;;;;;;;14.27;11.23;;;;;;;2.08;100.00;100529.81;5030821;28;20034;-75
2021/11/04 03:42:44;;;;;;;14.43;11.38;;;;;;;2.09;100.00;100537.69;5027842;28;20032;-75
2021/11/04 03:45:11;;;;;;;16.98;12.52;;;;;;;2.14;100.00;100536.19;5028712;28;20044;-75
2021/11/04 03:47:37;;;;;;;14.38;11.32;;;;;;;2.18;100.00;100542.38;5027392;28;20049;-74
2021/11/04 03:50:05;;;;;;;13.90;11.38;;;;;;;2.20;100.00;100540.75;5029855;28;20051;-74
2021/11/04 03:52:31;;;;;;;13.35;10.52;;;;;;;2.18;100.00;100544.97;5024221;28;20030;-75
2021/11/04 03:54:57;;;;;;;18.73;11.82;;;;;;;2.25;100.00;100548.75;5023203;28;20021;-74
2021/11/04 03:57:25;;;;;;;13.38;11.35;;;;;;;2.25;100.00;100554.84;5032958;28;20037;-75
2021/11/04 03:59:52;;;;;;;14.73;12.27;;;;;;;2.34;100.00;100559.56;5030343;28;20033;-75
2021/11/04 04:02:19;;;;;;;15.95;13.20;;;;;;;2.34;100.00;100565.63;5028489;28;20042;-74
2021/11/04 04:04:57;;;;;;;15.25;11.60;;;;;;;2.38;100.00;100568.38;5029759;28;20131;-74
2021/11/04 04:07:30;;;;;;;14.82;12.35;;;;;;;2.46;100.00;100570.50;5021908;28;20081;-75
2021/11/04 04:09:56;;;;;;;15.40;12.88;;;;;;;2.57;100.00;100563.19;5023584;28;20397;-75
2021/11/04 04:12:22;;;;;;;14.40;11.50;;;;;;;2.55;100.00;100556.13;5023148;28;20478;-75
2021/11/04 04:14:48;;;;;;;16.80;12.55;;;;;;;2.54;100.00;100557.84;5029277;28;20110;-75
2021/11/04 04:17:13;;;;;;;16.77;12.15;;;;;;;2.55;100.00;100553.53;5031319;28;20441;-74
2021/11/04 04:19:39;;;;;;;16.17;12.02;;;;;;;2.52;100.00;100554.28;5031499;28;20092;-74
2021/11/04 04:22:05;;;;;;;19.00;12.27;;;;;;;2.53;100.00;100553.47;5029768;28;20108;-74
2021/11/04 04:24:33;;;;;;;17.50;12.95;;;;;;;2.53;100.00;100559.53;5034912;28;20034;-75
2021/11/04 04:27:00;;;;;;;17.08;12.48;;;;;;;2.51;100.00;100574.19;5021892;28;20313;-75
2021/11/04 04:29:25;;;;;;;15.32;12.68;;;;;;;2.50;100.00;100561.13;5026809;28;20032;-75
2021/11/04 04:31:51;;;;;;;13.85;11.93;;;;;;;2.49;100.00;100556.75;5027141;28;20033;-75
2021/11/04 04:34:16;;;;;;;17.80;14.10;;;;;;;2.56;100.00;100563.13;5029456;28;20025;-75
2021/11/04 04:36:41;;;;;;;15.63;12.27;;;;;;;2.51;100.00;100568.13;5032857;28;20477;-76
2021/11/04 04:39:07;;;;;;;16.05;12.02;;;;;;;2.48;100.00;100557.56;5026432;28;20098;-75
2021/11/04 04:41:32;;;;;;;18.30;12.70;;;;;;;2.52;100.00;100564.66;5031327;28;20057;-75
2021/11/04 04:43:58;;;;;;;16.52;12.80;;;;;;;2.61;100.00;100565.09;5029526;28;20484;-76
2021/11/04 04:46:23;;;;;;;16.60;12.80;;;;;;;2.65;100.00;100572.19;5035152;28;20086;-75
2021/11/04 04:48:48;;;;;;;18.23;13.27;;;;;;;2.69;100.00;100568.91;5039976;28;20091;-75
2021/11/04 04:51:14;;;;;;;19.52;14.63;;;;;;;2.82;100.00;100572.94;5029573;28;20033;-76
2021/11/04 04:53:40;;;;;;;18.90;12.75;;;;;;;2.87;100.00;100576.59;5026381;28;20018;-76
2021/11/04 04:56:05;;;;;;;17.80;13.70;;;;;;;2.89;100.00;100570.59;5031610;28;20521;-75
2021/11/04 04:58:31;;;;;;;20.20;13.50;;;;;;;2.92;100.00;100565.56;5029053;28;20025;-75
2021/11/04 05:00:56;;;;;;;20.02;13.35;;;;;;;2.99;100.00;100573.66;5026124;28;20033;-76
2021/11/04 05:03:22;;;;;;;19.23;13.60;;;;;;;3.03;100.00;100574.69;5031762;28;20029;-75
2021/11/04 05:05:47;;;;;;;21.73;14.75;;;;;;;3.09;100.00;100579.25;5032340;28;20029;-74
2021/11/04 05:08:12;;;;;;;19.52;13.95;;;;;;;3.15;100.00;100584.72;5034531;28;20025;-75
2021/11/04 05:10:38;;;;;;;24.33;15.63;;;;;;;3.17;100.00;100577.88;5032069;28;20021;-75
2021/11/04 05:13:03;;;;;;;21.75;14.68;;;;;;;3.18;100.00;100584.84;5032250;28;20036;-74
2021/11/04 05:15:29;;;;;;;20.45;14.43;;;;;;;3.19;100.00;100581.44;5029478;28;20086;-74
2021/11/04 05:17:54;;;;;;;22.70;15.15;;;;;;;3.25;100.00;100586.88;5035214;28;20119;-75
2021/11/04 05:20:19;;;;;;;21.35;15.00;;;;;;;3.28;100.00;100587.00;5032144;28;20053;-75
2021/11/04 05:22:44;;;;;;;23.05;16.00;;;;;;;3.36;100.00;100589.91;5028151;28;20038;-75
2021/11/04 05:25:10;;;;;;;19.58;15.00;;;;;;;3.38;100.00;100589.16;5032673;28;20034;-75
2021/11/04 05:27:35;;;;;;;23.42;14.85;;;;;;;3.47;100.00;100599.06;5031165;28;20091;-76
2021/11/04 05:30:03;;;;;;;27.45;14.55;;;;;;;3.62;100.00;100606.63;5034378;28;20354;-74
2021/11/04 05:32:28;;;;;;;20.95;14.07;;;;;;;3.72;100.00;100621.75;5025239;28;20043;-75
2021/11/04 05:34:53;;;;;;;27.70;13.80;;;;;;;3.79;100.00;100616.81;5028728;28;20025;-75
2021/11/04 05:37:19;;;;;;;24.13;13.80;;;;;;;3.86;100.00;100613.63;5029934;28;20038;-76
2021/11/04 05:39:44;;;;;;;22.63;13.95;;;;;;;3.92;100.00;100619.09;5033255;28;20026;-76
2021/11/04 05:42:10;;;;;;;25.13;14.95;;;;;;;3.98;100.00;100619.31;5035608;28;20028;-76
2021/11/04 05:44:36;;;;;;;22.58;13.55;;;;;;;4.06;100.00;100632.66;5028646;28;20029;-75
2021/11/04 05:47:02;;;;;;;21.30;13.75;;;;;;;4.13;100.00;100624.25;5029825;28;20032;-76
2021/11/04 05:49:28;;;;;;;22.88;11.73;;;;;;;4.18;100.00;100616.63;5030319;28;20037;-75
2021/11/04 05:51:53;;;;;;;20.30;11.90;;;;;;;4.26;100.00;100607.38;5028276;28;20041;-77
2021/11/04 05:54:19;;;;;;;19.92;11.02;;;;;;;4.32;100.00;100612.81;5028029;28;20029;-75
2021/11/04 05:56:44;;;;;;;15.73;10.52;;;;;;;4.39;100.00;100617.44;5030488;28;20068;-76
2021/11/04 05:59:10;;;;;;;19.30;10.80;;;;;;;4.44;100.00;100606.31;5033666;28;20025;-76
2021/11/04 06:01:35;;;;;;;20.40;9.65;;;;;;;4.50;100.00;100609.13;5020769;28;20021;-78
2021/11/04 06:04:01;;;;;;;21.02;9.98;;;;;;;4.50;100.00;100609.13;5030072;28;20029;-75
2021/11/04 06:06:26;;;;;;;14.52;9.27;;;;;;;4.46;100.00;100615.94;5029043;28;20074;-77
2021/11/04 06:08:51;;;;;;;16.38;9.13;;;;;;;4.42;100.00;100613.16;5029088;28;20502;-78
2021/11/04 06:11:17;;;;;;;14.80;9.50;;;;;;;4.38;100.00;100619.97;5030714;28;20055;-77
2021/11/04 06:13:42;;;;;;;12.73;7.82;;;;;;;4.30;100.00;100611.88;5029281;28;20164;-76
2021/11/04 06:16:13;;;;;;;15.50;9.02;;;;;;;4.26;100.00;100620.41;5023771;28;20051;-77
2021/11/04 06:18:39;;;;;;;15.38;8.15;;;;;;;4.25;100.00;100613.41;5031184;28;20026;-78
2021/11/04 06:21:04;;;;;;;17.15;8.45;;;;;;;4.24;100.00;100610.75;5032493;28;20366;-77
2021/11/04 06:23:30;;;;;;;16.52;8.63;;;;;;;4.21;100.00;100606.31;5025544;28;20144;-76
2021/11/04 06:25:55;;;;;;;18.38;8.27;;;;;;;4.24;100.00;100600.34;5023287;28;20033;-77
2021/11/04 06:28:20;;;;;;;19.30;8.43;;;;;;;4.24;100.00;100601.22;5022164;28;20033;-75
2021/11/04 06:30:45;;;;;;;16.50;8.73;;;;;;;4.24;100.00;100611.63;5035005;28;20048;-76
2021/11/04 06:33:11;;;;;;;13.18;8.95;;;;;;;4.27;100.00;100616.06;5038780;28;20539;-74
2021/11/04 06:35:36;;;;;;;17.02;8.52;;;;;;;4.28;100.00;100612.66;5033261;28;20033;-75
2021/11/04 06:38:01;;;;;;;15.55;9.98;;;;;;;4.30;100.00;100616.19;5030513;28;20026;-76
2021/11/04 06:40:27;;;;;;;14.73;9.00;;;;;;;4.35;100.00;100625.06;5029029;28;20021;-75
2021/11/04 06:42:53;;;;;;;15.68;9.70;;;;;;;4.39;100.00;100637.38;5023511;28;20040;-75
2021/11/04 06:45:18;;;;;;;12.98;8.23;;;;;;;4.43;100.00;100638.41;5030231;28;20112;-76
2021/11/04 06:47:50;;;;;;;17.40;9.27;;;;;;;4.47;100.00;100638.56;5029853;28;20096;-76
2021/11/04 06:50:21;;;;;;;14.68;7.82;;;;;;;4.52;100.00;100642.22;5034040;28;20025;-75
2021/11/04 06:52:59;;;;;;;14.85;7.40;;;;;;;4.63;100.00;100645.25;5030005;28;20068;-76
2021/11/04 06:55:26;;;;;;;10.20;6.63;;;;;;;4.73;100.00;100651.69;5022871;28;20036;-73
2021/11/04 06:57:59;;;;;;;11.55;6.22;;;;;;;4.86;100.00;100640.88;5024807;28;20084;-73
2021/11/04 07:00:28;;;;;;;14.10;7.40;;;;;;;4.96;100.00;100647.31;5027532;28;20084;-71
2021/11/04 07:03:12;;;;;;;16.92;7.75;;;;;;;5.07;100.00;100643.38;5031038;28;20454;-73
2021/11/04 07:05:38;;;;;;;18.13;8.77;;;;;;;5.15;100.00;100648.84;5028131;28;20022;-73
2021/11/04 07:08:04;;;;;;;17.33;7.57;;;;;;;5.22;100.00;100657.78;5028577;28;20063;-73
2021/11/04 07:10:30;;;;;;;12.93;6.82;;;;;;;5.28;100.00;100655.41;5026295;28;20025;-74
2021/11/04 07:12:55;;;;;;;16.08;6.78;;;;;;;5.31;100.00;100658.09;5025476;28;20025;-73
2021/11/04 07:15:22;;;;;;;13.35;7.25;;;;;;;5.37;100.00;100655.72;5023111;28;20474;-75
2021/11/04 07:17:47;;;;;;;14.60;7.55;;;;;;;5.43;100.00;100654.16;5027840;28;20030;-73
2021/11/04 07:20:15;;;;;;;9.07;5.80;;;;;;;5.52;100.00;100659.66;5028414;28;20037;-74
2021/11/04 07:22:53;;;;;;;16.00;6.40;;;;;;;5.62;100.00;100656.53;5034319;28;20029;-75
2021/11/04 07:25:23;;;;;;;12.43;5.72;;;;;;;5.74;100.00;100662.19;5026424;28;20041;-75
2021/11/04 07:28:05;;;;;;;12.55;5.35;;;;;;;5.84;100.00;100665.09;5024391;28;20042;-75
2021/11/04 07:30:31;;;;;;;8.40;5.70;;;;;;;5.89;100.00;100671.38;5033219;28;20466;-75
2021/11/04 07:32:59;;;;;;;13.70;6.18;;;;;;;5.90;100.00;100667.88;5030051;28;20044;-75
2021/11/04 07:35:28;;;;;;;10.73;6.30;;;;;;;5.92;100.00;100666.22;5032337;28;20025;-74
2021/11/04 07:37:55;;;;;;;13.93;6.47;;;;;;;5.96;100.00;100665.50;5025897;28;20078;-74
2021/11/04 07:40:22;;;;;;;10.27;6.30;;;;;;;5.99;100.00;100665.63;5031329;28;20401;-75
2021/11/04 07:42:48;;;;;;;15.02;6.82;;;;;;;6.04;100.00;100669.28;5027023;28;20083;-75
2021/11/04 07:45:13;;;;;;;13.82;6.43;;;;;;;6.10;100.00;100670.31;5031083;28;20026;-74
2021/11/04 07:47:41;;;;;;;13.07;6.07;;;;;;;6.17;100.00;100677.50;5027379;28;20167;-74
2021/11/04 07:50:08;;;;;;;10.35;5.95;;;;;;;6.25;100.00;100678.63;5029812;28;20053;-76
2021/11/04 07:52:34;;;;;;;11.05;5.35;;;;;;;6.35;100.00;100680.69;5034862;28;20041;-74
2021/11/04 07:55:01;;;;;;;14.93;5.75;;;;;;;6.41;100.00;100675.63;5029775;28;20030;-75
2021/11/04 07:57:27;;;;;;;8.38;4.25;;;;;;;6.51;100.00;100678.53;5021640;28;20363;-75
2021/11/04 07:59:52;;;;;;;13.70;5.13;;;;;;;6.56;100.00;100676.97;5029425;28;20022;-77
2021/11/04 08:02:18;;;;;;;12.65;4.57;;;;;;;6.60;100.00;100676.22;5031971;28;20392;-77
2021/11/04 08:04:43;;;;;;;13.85;5.38;;;;;;;6.60;100.00;100678.81;5031524;28;20033;-75
2021/11/04 08:07:08;;;;;;;9.07;5.15;;;;;;;6.63;100.00;100675.41;5031285;28;20056;-76
2021/11/04 08:09:34;;;;;;;10.63;6.70;;;;;;;6.66;100.00;100673.78;5037954;28;20033;-76
2021/11/04 08:11:59;;;;;;;13.32;6.35;;;;;;;6.71;100.00;100672.16;5032581;28;20079;-76
2021/11/04 08:14:25;;;;;;;14.93;6.38;;;;;;;6.80;100.00;100670.69;5040602;28;20366;-77
2021/11/04 08:16:50;;;;;;;12.02;6.25;;;;;;;6.90;100.00;100667.47;5035660;28;20365;-76
2021/11/04 08:19:17;;;;;;;21.20;7.70;;;;;;;6.97;100.00;100666.81;5030853;28;20064;-77
2021/11/04 08:21:43;;;;;;;15.88;7.97;;;;;;;7.07;100.00;100676.69;5026162;28;20021;-77
2021/11/04 08:24:08;;;;;;;15.93;7.32;;;;;;;7.17;100.00;100671.72;5040688;28;20063;-75
2021/11/04 08:26:34;;;;;;;13.85;7.97;;;;;;;7.26;100.00;100672.84;5030606;28;20025;-75
2021/11/04 08:29:01;;;;;;;19.08;8.52;;;;;;;7.41;100.00;100668.91;5035377;28;20033;-75
2021/11/04 08:31:28;;;;;;;18.05;9.88;;;;;;;7.54;100.00;100677.94;5035533;28;20354;-76
2021/11/04 08:33:53;;;;;;;23.65;9.23;;;;;;;7.70;100.00;100674.88;5037334;28;20030;-76
2021/11/04 08:36:19;;;;;;;18.50;9.07;;;;;;;7.85;100.00;100671.75;5030480;28;20057;-77
2021/11/04 08:38:44;;;;;;;12.27;7.70;;;;;;;7.99;100.00;100672.09;5037646;28;20050;-77
2021/11/04 08:41:09;;;;;;;12.43;6.53;;;;;;;8.14;100.00;100681.16;5031327;28;20037;-77
2021/11/04 08:43:35;;;;;;;20.30;5.13;;;;;;;8.25;100.00;100671.84;5029979;28;20026;-76
2021/11/04 08:46:00;;;;;;;11.45;3.78;;;;;;;8.31;100.00;100685.06;5034389;28;20117;-76
2021/11/04 08:48:25;;;;;;;11.90;3.63;;;;;;;8.38;100.00;100678.25;5034257;28;20180;-76
2021/11/04 08:50:51;;;;;;;7.75;3.15;;;;;;;8.40;100.00;100687.91;5040356;28;20049;-76
2021/11/04 08:53:17;;;;;;;6.93;3.05;;;;;;;8.40;100.00;100692.28;5025635;28;20080;-77
2021/11/04 08:55:43;;;;;;;6.50;2.00;;;;;;;8.36;100.00;100700.94;5031263;28;20025;-77
2021/11/04 08:58:09;;;;;;;12.52;2.30;;;;;;;8.31;100.00;100698.19;5034723;28;20433;-76
2021/11/04 09:00:35;;;;;;;8.02;1.50;;;;;;;8.27;100.00;100704.19;5039952;28;20037;-76
2021/11/04 09:03:00;;;;;;;10.15;1.92;;;;;;;8.24;100.00;100707.63;5036788;28;20503;-76
2021/11/04 09:05:25;;;;;;;6.43;1.08;;;;;;;8.25;100.00;100703.28;5040334;28;20040;-76
2021/11/04 09:07:51;;;;;;;8.55;1.08;;;;;;;8.22;100.00;100693.63;5036325;28;20025;-78
2021/11/04 09:10:20;;;;;;;4.25;1.05;;;;;;;8.21;100.00;100693.59;5038572;28;20036;-77
2021/11/04 09:12:45;;;;;;;4.13;1.00;;;;;;;8.17;100.00;100694.38;5039190;28;20029;-76
2021/11/04 09:15:12;;;;;;;4.72;0.88;;;;;;;8.09;100.00;100689.81;5040371;28;20112;-77
2021/11/04 09:17:37;;;;;;;6.18;1.00;;;;;;;8.02;100.00;100687.03;5033008;28;20052;-77
2021/11/04 09:20:04;;;;;;;6.45;1.27;;;;;;;7.97;100.00;100683.41;5033742;28;20087;-77
2021/11/04 09:22:31;;;;;;;3.47;1.48;;;;;;;7.94;100.00;100685.06;5041159;28;20033;-77
2021/11/04 09:24:56;;;;;;;3.92;1.05;;;;;;;7.95;100.00;100680.75;5035074;28;20041;-77
2021/11/04 09:27:22;;;;;;;5.18;1.08;;;;;;;8.00;100.00;100680.84;5032389;28;20036;-77
2021/11/04 09:29:48;;;;;;;6.88;1.00;;;;;;;8.03;100.00;100676.56;5030882;28;20061;-77
2021/11/04 09:32:13;;;;;;;8.30;1.17;;;;;;;8.08;100.00;100676.66;5029273;28;20470;-75
2021/11/04 09:34:39;;;;;;;2.90;1.05;;;;;;;8.08;100.00;100679.28;5034181;28;20176;-77
2021/11/04 09:37:16;;;;;;;8.60;1.35;;;;;;;8.05;100.00;100677.47;5021372;28;20033;-77
2021/11/04 09:39:41;;;;;;;5.97;0.95;;;;;;;8.06;100.00;100684.50;5024938;28;20461;-77
2021/11/04 09:42:06;;;;;;;12.65;1.35;;;;;;;8.04;100.00;100680.06;5029834;28;20056;-77
2021/11/04 09:44:32;;;;;;;9.80;1.45;;;;;;;8.04;100.00;100680.94;5023293;28;20087;-77
2021/11/04 09:46:58;;;;;;;10.40;1.77;;;;;;;8.03;100.00;100688.78;5033738;28;20512;-77
2021/11/04 09:49:27;;;;;;;5.85;1.00;;;;;;;8.03;100.00;100694.00;5026067;28;20072;-76
2021/11/04 09:51:53;;;;;;;9.27;1.17;;;;;;;7.99;100.00;100693.06;5031487;28;20118;-76
2021/11/04 09:54:18;;;;;;;14.60;1.90;;;;;;;7.97;100.00;100692.13;5031705;28;20021;-76
2021/11/04 09:56:43;;;;;;;8.48;1.70;;;;;;;7.96;100.00;100692.97;5032903;28;20493;-76
2021/11/04 09:59:09;;;;;;;9.23;1.20;;;;;;;7.97;100.00;100694.75;5037453;28;20025;-77
2021/11/04 10:01:35;;;;;;;7.28;0.90;;;;;;;8.02;100.00;100690.53;5039103;28;20470;-76
2021/11/04 10:04:03;;;;;;;15.48;1.48;;;;;;;8.09;100.00;100691.56;5043103;28;20112;-76
2021/11/04 10:06:31;;;;;;;5.30;1.15;;;;;;;8.28;100.00;100703.38;5036765;28;20030;-76
2021/11/04 10:09:03;;;;;;;8.13;1.33;;;;;;;8.49;100.00;100702.13;5037464;28;20097;-76
2021/11/04 10:11:30;;;;;;;9.52;1.35;;;;;;;8.72;100.00;100706.16;5038060;28;20022;-76
2021/11/04 10:14:02;;;;;;;12.00;1.40;;;;;;;8.88;100.00;100704.72;5036344;28;20029;-76
2021/11/04 10:16:28;;;;;;;6.50;1.38;;;;;;;8.99;100.00;100702.31;5041447;28;20036;-75
2021/11/04 10:18:53;;;;;;;12.82;1.33;;;;;;;9.05;100.00;100701.59;5033921;28;20053;-77
2021/11/04 10:21:29;;;;;;;7.82;1.38;;;;;;;9.05;100.00;100705.09;5025850;28;20113;-75
2021/11/04 10:23:55;;;;;;;15.35;1.85;;;;;;;9.17;100.00;100701.84;5035870;28;20049;-76
2021/11/04 10:26:24;;;;;;;13.77;1.50;;;;;;;9.48;100.00;100706.78;5027882;28;20083;-77
2021/11/04 10:28:57;;;;;;;9.07;1.25;;;;;;;9.82;100.00;100707.38;5033320;28;20100;-76
2021/11/04 10:31:23;;;;;;;7.72;1.05;;;;;;;10.09;100.00;100713.13;5027519;28;20577;-75
2021/11/04 10:33:51;;;;;;;8.45;1.40;;;;;;;10.18;100.00;100711.50;5027434;28;20112;-75
2021/11/04 10:36:25;;;;;;;5.38;1.50;;;;;;;10.37;100.00;100716.22;5031306;28;20030;-76
2021/11/04 10:38:51;;;;;;;11.52;1.40;;;;;;;10.80;100.00;100708.94;5036219;28;20052;-75
2021/11/04 10:41:38;;;;;;;10.55;1.73;;;;;;;11.46;100.00;100713.22;5026124;28;20478;-75
2021/11/04 10:44:15;;;;;;;4.88;1.17;;;;;;;12.32;100.00;100708.75;5033376;28;20102;-77
2021/11/04 10:46:47;;;;;;;6.95;1.00;;;;;;;13.11;98.74;100701.25;5027485;28;20094;-76
2021/11/04 10:49:14;;;;;;;9.05;1.13;;;;;;;14.03;90.56;100691.78;5033535;28;20429;-75
2021/11/04 10:51:39;;;;;;;5.00;0.60;;;;;;;14.46;88.16;100685.53;5031409;28;20036;-76
2021/11/04 10:54:18;;;;;;;2.88;0.52;;;;;;;14.81;83.72;100680.22;5025760;28;20143;-77
2021/11/04 10:56:46;;;;;;;3.08;0.57;;;;;;;15.05;82.65;100680.09;5029528;28;20056;-76
2021/11/04 10:59:16;;;;;;;3.58;0.57;;;;;;;15.30;77.96;100670.25;5027865;28;20076;-76
2021/11/04 11:01:53;;;;;;;2.65;0.60;;;;;;;15.31;81.07;100682.63;5037379;28;20116;-75
2021/11/04 11:04:32;;;;;;;8.35;0.77;;;;;;;15.81;79.89;100678.78;5039460;28;20025;-76
2021/11/04 11:06:58;;;;;;;5.55;0.90;;;;;;;15.83;76.98;100671.69;5033972;28;20045;-77
2021/11/04 11:09:29;;;;;;;3.13;0.80;;;;;;;15.85;77.21;100676.97;5031351;28;20025;-75
2021/11/04 11:12:04;;;;;;;1.98;0.50;;;;;;;15.87;77.89;100682.28;5039731;28;20026;-77
2021/11/04 11:14:31;;;;;;;6.05;0.65;;;;;;;15.90;74.79;100684.91;5040494;28;20382;-77